sensor_id;sensor_type;location;lat;lon;timestamp;pressure;altitude;pressure_sealevel;temperature;humidity
20860;BME280;10590;48.154;11.514;2022-12-29T00:02:30;95495.50;;;3.86;62.32
20860;BME280;10590;48.154;11.514;2022-12-29T00:07:33;95491.50;;;3.89;61.67
20860;BME280;10590;48.154;11.514;2022-12-29T00:12:34;95487.22;;;3.98;61.84
20860;BME280;10590;48.154;11.514;2022-12-29T00:17:53;95473.00;;;3.94;60.93
20860;BME280;10590;48.154;11.514;2022-12-29T00:22:56;95484.91;;;4.20;61.19
20860;BME280;10590;48.154;11.514;2022-12-29T00:28:15;95480.19;;;4.17;61.01
20860;BME280;10590;48.154;11.514;2022-12-29T00:33:34;95481.41;;;4.30;59.00
20860;BME280;10590;48.154;11.514;2022-12-29T00:38:57;95474.03;;;4.27;58.57
20860;BME280;10590;48.154;11.514;2022-12-29T00:44:17;95479.59;;;4.25;58.73
20860;BME280;10590;48.154;11.514;2022-12-29T00:49:19;95477.50;;;4.22;58.96
20860;BME280;10590;48.154;11.514;2022-12-29T00:54:35;95476.47;;;4.18;58.70
20860;BME280;10590;48.154;11.514;2022-12-29T00:59:38;95471.25;;;4.13;59.29
20860;BME280;10590;48.154;11.514;2022-12-29T01:04:40;95479.44;;;4.11;59.30
20860;BME280;10590;48.154;11.514;2022-12-29T01:09:43;95481.63;;;4.04;59.58
20860;BME280;10590;48.154;11.514;2022-12-29T01:15:02;95486.66;;;4.01;59.48
20860;BME280;10590;48.154;11.514;2022-12-29T01:20:05;95484.53;;;4.03;59.07
20860;BME280;10590;48.154;11.514;2022-12-29T01:25:08;95461.13;;;3.91;58.81
20860;BME280;10590;48.154;11.514;2022-12-29T01:30:10;95484.53;;;4.03;59.03
20860;BME280;10590;48.154;11.514;2022-12-29T01:35:12;95493.47;;;4.07;59.05
20860;BME280;10590;48.154;11.514;2022-12-29T01:40:15;95482.41;;;4.05;59.35
20860;BME280;10590;48.154;11.514;2022-12-29T01:45:18;95488.72;;;4.09;58.61
20860;BME280;10590;48.154;11.514;2022-12-29T01:50:22;95489.31;;;4.01;58.96
20860;BME280;10590;48.154;11.514;2022-12-29T01:55:29;95487.50;;;3.96;59.00
20860;BME280;10590;48.154;11.514;2022-12-29T02:00:32;95484.03;;;4.01;59.00
20860;BME280;10590;48.154;11.514;2022-12-29T02:05:37;95476.66;;;3.98;58.91
20860;BME280;10590;48.154;11.514;2022-12-29T02:10:42;95464.25;;;3.98;58.55
20860;BME280;10590;48.154;11.514;2022-12-29T02:15:51;95456.00;;;4.05;58.15
20860;BME280;10590;48.154;11.514;2022-12-29T02:26:47;95461.00;;;4.06;58.20
20860;BME280;10590;48.154;11.514;2022-12-29T02:31:57;95471.44;;;4.22;57.24
20860;BME280;10590;48.154;11.514;2022-12-29T02:37:03;95462.44;;;4.23;57.36
20860;BME280;10590;48.154;11.514;2022-12-29T02:42:11;95462.59;;;4.36;57.17
20860;BME280;10590;48.154;11.514;2022-12-29T02:47:22;95439.63;;;4.37;56.27
20860;BME280;10590;48.154;11.514;2022-12-29T02:52:28;95450.81;;;4.53;55.69
20860;BME280;10590;48.154;11.514;2022-12-29T02:57:33;95443.50;;;4.68;55.17
20860;BME280;10590;48.154;11.514;2022-12-29T03:02:50;95442.59;;;4.78;54.13
20860;BME280;10590;48.154;11.514;2022-12-29T03:08:03;95434.84;;;4.87;54.59
20860;BME280;10590;48.154;11.514;2022-12-29T03:13:12;95432.78;;;5.02;53.62
20860;BME280;10590;48.154;11.514;2022-12-29T03:18:49;95432.59;;;5.18;52.73
20860;BME280;10590;48.154;11.514;2022-12-29T03:23:53;95427.13;;;5.33;52.84
20860;BME280;10590;48.154;11.514;2022-12-29T03:28:54;95428.13;;;5.37;52.48
20860;BME280;10590;48.154;11.514;2022-12-29T03:33:59;95421.09;;;5.46;52.10
20860;BME280;10590;48.154;11.514;2022-12-29T03:39:06;95414.53;;;5.43;52.10
20860;BME280;10590;48.154;11.514;2022-12-29T03:44:12;95414.44;;;5.49;52.12
20860;BME280;10590;48.154;11.514;2022-12-29T03:49:15;95414.59;;;5.57;52.00
20860;BME280;10590;48.154;11.514;2022-12-29T03:54:17;95417.22;;;5.57;52.05
20860;BME280;10590;48.154;11.514;2022-12-29T03:59:18;95407.63;;;5.61;51.52
20860;BME280;10590;48.154;11.514;2022-12-29T04:04:21;95395.56;;;5.55;51.04
20860;BME280;10590;48.154;11.514;2022-12-29T04:09:23;95388.69;;;5.54;51.04
20860;BME280;10590;48.154;11.514;2022-12-29T04:14:25;95414.44;;;5.67;51.06
20860;BME280;10590;48.154;11.514;2022-12-29T04:19:28;95419.06;;;5.75;51.00
20860;BME280;10590;48.154;11.514;2022-12-29T04:24:29;95415.19;;;5.87;50.97
20860;BME280;10590;48.154;11.514;2022-12-29T04:29:31;95417.19;;;5.76;50.86
20860;BME280;10590;48.154;11.514;2022-12-29T04:34:34;95408.09;;;5.82;50.60
20860;BME280;10590;48.154;11.514;2022-12-29T04:39:36;95406.16;;;5.88;50.12
20860;BME280;10590;48.154;11.514;2022-12-29T04:44:37;95403.88;;;6.00;49.62
20860;BME280;10590;48.154;11.514;2022-12-29T04:49:40;95393.28;;;6.00;50.18
20860;BME280;10590;48.154;11.514;2022-12-29T04:54:42;95398.44;;;5.91;49.84
20860;BME280;10590;48.154;11.514;2022-12-29T04:59:43;95403.28;;;6.03;49.71
20860;BME280;10590;48.154;11.514;2022-12-29T05:04:46;95389.34;;;5.97;49.68
20860;BME280;10590;48.154;11.514;2022-12-29T05:09:48;95397.41;;;6.06;49.19
20860;BME280;10590;48.154;11.514;2022-12-29T05:14:49;95404.16;;;5.98;49.93
20860;BME280;10590;48.154;11.514;2022-12-29T05:19:52;95401.50;;;5.98;49.84
20860;BME280;10590;48.154;11.514;2022-12-29T05:24:54;95416.31;;;5.99;49.62
20860;BME280;10590;48.154;11.514;2022-12-29T05:29:56;95412.50;;;6.05;50.07
20860;BME280;10590;48.154;11.514;2022-12-29T05:34:58;95411.22;;;6.03;49.82
20860;BME280;10590;48.154;11.514;2022-12-29T05:40:00;95382.06;;;5.89;49.84
20860;BME280;10590;48.154;11.514;2022-12-29T05:45:02;95396.34;;;6.07;49.63
20860;BME280;10590;48.154;11.514;2022-12-29T05:50:06;95401.66;;;6.07;50.09
20860;BME280;10590;48.154;11.514;2022-12-29T05:55:08;95409.00;;;6.10;49.27
20860;BME280;10590;48.154;11.514;2022-12-29T06:00:10;95408.22;;;6.10;49.50
20860;BME280;10590;48.154;11.514;2022-12-29T06:05:14;95391.69;;;5.99;49.95
20860;BME280;10590;48.154;11.514;2022-12-29T06:10:15;95406.09;;;6.25;48.57
20860;BME280;10590;48.154;11.514;2022-12-29T06:15:17;95387.53;;;6.12;49.32
20860;BME280;10590;48.154;11.514;2022-12-29T06:20:20;95404.53;;;6.24;49.37
20860;BME280;10590;48.154;11.514;2022-12-29T06:25:22;95418.25;;;6.13;50.43
20860;BME280;10590;48.154;11.514;2022-12-29T06:30:23;95414.03;;;6.12;49.47
20860;BME280;10590;48.154;11.514;2022-12-29T06:35:26;95398.44;;;6.37;49.45
20860;BME280;10590;48.154;11.514;2022-12-29T06:40:28;95403.63;;;6.15;49.74
20860;BME280;10590;48.154;11.514;2022-12-29T06:45:30;95391.59;;;6.04;50.42
20860;BME280;10590;48.154;11.514;2022-12-29T06:50:33;95413.28;;;6.06;50.65
20860;BME280;10590;48.154;11.514;2022-12-29T06:55:34;95410.09;;;6.09;50.59
20860;BME280;10590;48.154;11.514;2022-12-29T07:00:36;95406.50;;;6.00;51.13
20860;BME280;10590;48.154;11.514;2022-12-29T07:05:39;95402.28;;;5.99;50.80
20860;BME280;10590;48.154;11.514;2022-12-29T07:10:40;95419.06;;;5.94;50.96
20860;BME280;10590;48.154;11.514;2022-12-29T07:15:42;95436.28;;;6.11;49.35
20860;BME280;10590;48.154;11.514;2022-12-29T07:20:45;95430.19;;;6.10;50.35
20860;BME280;10590;48.154;11.514;2022-12-29T07:25:47;95437.06;;;6.11;50.31
20860;BME280;10590;48.154;11.514;2022-12-29T07:30:48;95439.44;;;6.13;49.24
20860;BME280;10590;48.154;11.514;2022-12-29T07:35:51;95447.50;;;6.21;49.22
20860;BME280;10590;48.154;11.514;2022-12-29T07:40:56;95449.97;;;6.31;49.29
20860;BME280;10590;48.154;11.514;2022-12-29T07:45:58;95439.97;;;6.28;49.02
20860;BME280;10590;48.154;11.514;2022-12-29T07:51:01;95446.06;;;6.43;48.77
20860;BME280;10590;48.154;11.514;2022-12-29T07:56:03;95461.50;;;6.68;48.13
20860;BME280;10590;48.154;11.514;2022-12-29T08:01:06;95458.25;;;6.85;47.21
20860;BME280;10590;48.154;11.514;2022-12-29T08:06:10;95432.03;;;6.83;47.55
20860;BME280;10590;48.154;11.514;2022-12-29T08:11:12;95453.63;;;6.90;47.21
20860;BME280;10590;48.154;11.514;2022-12-29T08:16:13;95449.25;;;6.99;46.31
20860;BME280;10590;48.154;11.514;2022-12-29T08:21:16;95440.88;;;7.06;46.46
20860;BME280;10590;48.154;11.514;2022-12-29T08:26:18;95443.19;;;7.35;46.01
20860;BME280;10590;48.154;11.514;2022-12-29T08:31:21;95432.94;;;7.42;45.43
20860;BME280;10590;48.154;11.514;2022-12-29T08:36:24;95449.75;;;7.51;45.29
20860;BME280;10590;48.154;11.514;2022-12-29T08:41:26;95442.59;;;8.41;43.98
20860;BME280;10590;48.154;11.514;2022-12-29T08:46:27;95441.88;;;8.58;43.25
20860;BME280;10590;48.154;11.514;2022-12-29T08:51:30;95451.56;;;8.54;45.96
20860;BME280;10590;48.154;11.514;2022-12-29T08:56:32;95455.84;;;8.63;43.54
20860;BME280;10590;48.154;11.514;2022-12-29T09:01:33;95468.13;;;8.51;44.14
20860;BME280;10590;48.154;11.514;2022-12-29T09:06:37;95476.41;;;8.72;42.88
20860;BME280;10590;48.154;11.514;2022-12-29T09:11:39;95471.06;;;9.11;41.36
20860;BME280;10590;48.154;11.514;2022-12-29T09:16:41;95481.13;;;8.75;42.22
20860;BME280;10590;48.154;11.514;2022-12-29T09:22:01;95475.66;;;8.80;42.39
20860;BME280;10590;48.154;11.514;2022-12-29T09:27:03;95473.34;;;8.87;42.15
20860;BME280;10590;48.154;11.514;2022-12-29T09:32:05;95474.84;;;9.19;42.31
20860;BME280;10590;48.154;11.514;2022-12-29T09:37:09;95472.91;;;10.02;41.04
20860;BME280;10590;48.154;11.514;2022-12-29T09:42:14;95472.91;;;9.76;40.91
20860;BME280;10590;48.154;11.514;2022-12-29T09:47:29;95466.19;;;9.79;41.33
20860;BME280;10590;48.154;11.514;2022-12-29T09:52:34;95465.25;;;9.92;41.45
20860;BME280;10590;48.154;11.514;2022-12-29T09:57:40;95462.88;;;9.99;40.97
20860;BME280;10590;48.154;11.514;2022-12-29T10:02:48;95456.78;;;9.73;39.72
20860;BME280;10590;48.154;11.514;2022-12-29T10:07:59;95442.03;;;9.84;39.76
20860;BME280;10590;48.154;11.514;2022-12-29T10:13:15;95430.13;;;9.81;39.86
20860;BME280;10590;48.154;11.514;2022-12-29T10:18:57;95451.59;;;10.11;38.60
20860;BME280;10590;48.154;11.514;2022-12-29T10:24:07;95448.75;;;10.25;38.81
20860;BME280;10590;48.154;11.514;2022-12-29T10:29:15;95444.19;;;10.34;38.67
20860;BME280;10590;48.154;11.514;2022-12-29T10:34:21;95450.09;;;10.65;37.79
20860;BME280;10590;48.154;11.514;2022-12-29T10:39:30;95440.75;;;10.89;37.48
20860;BME280;10590;48.154;11.514;2022-12-29T10:44:34;95432.69;;;10.97;37.79
20860;BME280;10590;48.154;11.514;2022-12-29T10:49:40;95424.31;;;10.78;38.31
20860;BME280;10590;48.154;11.514;2022-12-29T10:54:49;95425.66;;;10.93;37.59
20860;BME280;10590;48.154;11.514;2022-12-29T10:59:52;95413.50;;;11.04;37.57
20860;BME280;10590;48.154;11.514;2022-12-29T11:05:00;95406.94;;;11.22;36.83
20860;BME280;10590;48.154;11.514;2022-12-29T11:10:20;95403.16;;;10.64;38.18
20860;BME280;10590;48.154;11.514;2022-12-29T11:15:22;95391.09;;;10.96;38.10
20860;BME280;10590;48.154;11.514;2022-12-29T11:20:30;95389.88;;;11.44;37.53
20860;BME280;10590;48.154;11.514;2022-12-29T11:31:17;95374.06;;;11.72;37.15
20860;BME280;10590;48.154;11.514;2022-12-29T11:36:20;95370.72;;;11.96;36.61
20860;BME280;10590;48.154;11.514;2022-12-29T11:41:25;95373.50;;;11.87;35.14
20860;BME280;10590;48.154;11.514;2022-12-29T11:46:31;95362.88;;;11.58;35.46
20860;BME280;10590;48.154;11.514;2022-12-29T11:51:38;95366.97;;;11.76;35.10
20860;BME280;10590;48.154;11.514;2022-12-29T11:56:44;95371.94;;;11.86;34.92
20860;BME280;10590;48.154;11.514;2022-12-29T12:01:47;95374.16;;;11.84;35.02
20860;BME280;10590;48.154;11.514;2022-12-29T12:07:00;95367.81;;;11.89;34.41
20860;BME280;10590;48.154;11.514;2022-12-29T12:12:04;95361.94;;;11.95;34.83
20860;BME280;10590;48.154;11.514;2022-12-29T12:17:14;95357.69;;;11.94;34.50
20860;BME280;10590;48.154;11.514;2022-12-29T12:22:22;95348.66;;;12.20;34.43
20860;BME280;10590;48.154;11.514;2022-12-29T12:27:32;95341.19;;;12.25;35.11
20860;BME280;10590;48.154;11.514;2022-12-29T12:32:48;95340.44;;;12.49;35.33
20860;BME280;10590;48.154;11.514;2022-12-29T12:38:00;95333.41;;;12.44;35.41
20860;BME280;10590;48.154;11.514;2022-12-29T12:43:14;95335.09;;;12.49;35.92
20860;BME280;10590;48.154;11.514;2022-12-29T12:48:44;95332.63;;;12.56;38.03
20860;BME280;10590;48.154;11.514;2022-12-29T12:54:00;95332.63;;;12.56;38.90
20860;BME280;10590;48.154;11.514;2022-12-29T12:59:13;95327.72;;;12.46;38.66
20860;BME280;10590;48.154;11.514;2022-12-29T13:04:43;95324.59;;;12.44;39.06
20860;BME280;10590;48.154;11.514;2022-12-29T13:10:00;95318.00;;;12.29;40.28
20860;BME280;10590;48.154;11.514;2022-12-29T13:15:14;95333.50;;;12.24;40.30
20860;BME280;10590;48.154;11.514;2022-12-29T13:20:29;95322.13;;;12.27;40.17
20860;BME280;10590;48.154;11.514;2022-12-29T13:25:39;95310.53;;;12.35;41.28
20860;BME280;10590;48.154;11.514;2022-12-29T13:30:48;95315.22;;;12.38;40.93
20860;BME280;10590;48.154;11.514;2022-12-29T13:36:00;95317.66;;;12.19;42.62
20860;BME280;10590;48.154;11.514;2022-12-29T13:41:07;95321.44;;;12.18;42.82
20860;BME280;10590;48.154;11.514;2022-12-29T13:46:13;95324.28;;;12.00;43.39
20860;BME280;10590;48.154;11.514;2022-12-29T13:51:18;95320.47;;;11.89;43.08
20860;BME280;10590;48.154;11.514;2022-12-29T13:56:25;95334.75;;;11.93;43.86
20860;BME280;10590;48.154;11.514;2022-12-29T14:01:30;95327.72;;;11.89;44.07
20860;BME280;10590;48.154;11.514;2022-12-29T14:06:37;95331.75;;;11.95;44.34
20860;BME280;10590;48.154;11.514;2022-12-29T14:11:41;95326.41;;;11.74;44.87
20860;BME280;10590;48.154;11.514;2022-12-29T14:16:44;95323.94;;;11.69;45.60
20860;BME280;10590;48.154;11.514;2022-12-29T14:21:58;95321.56;;;11.55;46.57
20860;BME280;10590;48.154;11.514;2022-12-29T14:33:01;95343.66;;;11.43;47.14
20860;BME280;10590;48.154;11.514;2022-12-29T14:38:17;95333.63;;;11.40;47.66
20860;BME280;10590;48.154;11.514;2022-12-29T14:43:24;95333.03;;;11.35;47.64
20860;BME280;10590;48.154;11.514;2022-12-29T14:48:36;95346.94;;;11.28;48.14
20860;BME280;10590;48.154;11.514;2022-12-29T14:53:46;95349.25;;;11.30;48.15
20860;BME280;10590;48.154;11.514;2022-12-29T14:58:51;95333.09;;;11.26;47.99
20860;BME280;10590;48.154;11.514;2022-12-29T15:03:57;95348.13;;;11.10;48.24
20860;BME280;10590;48.154;11.514;2022-12-29T15:09:04;95359.91;;;11.09;47.37
20860;BME280;10590;48.154;11.514;2022-12-29T15:19:40;95359.56;;;10.60;44.06
20860;BME280;10590;48.154;11.514;2022-12-29T15:24:44;95361.69;;;10.29;45.12
20860;BME280;10590;48.154;11.514;2022-12-29T15:29:46;95353.75;;;10.03;45.44
20860;BME280;10590;48.154;11.514;2022-12-29T15:34:49;95354.72;;;9.89;45.52
20860;BME280;10590;48.154;11.514;2022-12-29T15:39:53;95361.50;;;9.70;45.06
20860;BME280;10590;48.154;11.514;2022-12-29T15:44:55;95360.06;;;9.46;45.95
20860;BME280;10590;48.154;11.514;2022-12-29T15:50:01;95354.13;;;9.49;45.81
20860;BME280;10590;48.154;11.514;2022-12-29T15:55:05;95352.72;;;9.43;45.59
20860;BME280;10590;48.154;11.514;2022-12-29T16:00:21;95360.69;;;9.26;45.59
20860;BME280;10590;48.154;11.514;2022-12-29T16:05:31;95354.59;;;9.25;46.26
20860;BME280;10590;48.154;11.514;2022-12-29T16:10:36;95368.84;;;9.30;46.26
20860;BME280;10590;48.154;11.514;2022-12-29T16:15:40;95363.19;;;9.14;46.30
20860;BME280;10590;48.154;11.514;2022-12-29T16:20:42;95348.75;;;8.80;47.52
20860;BME280;10590;48.154;11.514;2022-12-29T16:25:45;95354.66;;;8.69;48.76
20860;BME280;10590;48.154;11.514;2022-12-29T16:30:57;95368.81;;;8.95;47.77
20860;BME280;10590;48.154;11.514;2022-12-29T16:35:59;95373.03;;;9.05;48.42
20860;BME280;10590;48.154;11.514;2022-12-29T16:41:02;95379.44;;;8.95;49.55
20860;BME280;10590;48.154;11.514;2022-12-29T16:46:18;95371.59;;;8.81;50.88
20860;BME280;10590;48.154;11.514;2022-12-29T16:51:28;95381.50;;;9.15;50.67
20860;BME280;10590;48.154;11.514;2022-12-29T16:56:33;95384.34;;;9.27;50.07
20860;BME280;10590;48.154;11.514;2022-12-29T17:01:37;95381.00;;;8.87;51.27
20860;BME280;10590;48.154;11.514;2022-12-29T17:06:39;95405.38;;;8.72;52.40
20860;BME280;10590;48.154;11.514;2022-12-29T17:11:43;95406.16;;;8.73;53.02
20860;BME280;10590;48.154;11.514;2022-12-29T17:16:57;95395.84;;;8.80;53.61
20860;BME280;10590;48.154;11.514;2022-12-29T17:22:01;95402.16;;;9.01;52.61
20860;BME280;10590;48.154;11.514;2022-12-29T17:27:04;95390.53;;;8.88;53.25
20860;BME280;10590;48.154;11.514;2022-12-29T17:32:10;95389.81;;;8.66;54.71
20860;BME280;10590;48.154;11.514;2022-12-29T17:37:27;95394.47;;;8.51;54.81
20860;BME280;10590;48.154;11.514;2022-12-29T17:42:31;95399.97;;;8.55;55.21
20860;BME280;10590;48.154;11.514;2022-12-29T17:47:34;95390.66;;;8.75;54.94
20860;BME280;10590;48.154;11.514;2022-12-29T17:52:35;95397.13;;;8.91;54.59
20860;BME280;10590;48.154;11.514;2022-12-29T17:57:38;95399.97;;;9.03;54.98
20860;BME280;10590;48.154;11.514;2022-12-29T18:02:40;95399.19;;;9.03;54.58
20860;BME280;10590;48.154;11.514;2022-12-29T18:07:41;95409.44;;;8.70;56.23
20860;BME280;10590;48.154;11.514;2022-12-29T18:12:45;95418.25;;;8.87;55.95
20860;BME280;10590;48.154;11.514;2022-12-29T18:17:47;95419.66;;;8.54;56.72
20860;BME280;10590;48.154;11.514;2022-12-29T18:22:49;95414.97;;;8.51;57.17
20860;BME280;10590;48.154;11.514;2022-12-29T18:27:52;95404.50;;;8.54;56.99
20860;BME280;10590;48.154;11.514;2022-12-29T18:32:54;95413.03;;;8.43;57.47
20860;BME280;10590;48.154;11.514;2022-12-29T18:37:55;95405.19;;;8.38;56.07
20860;BME280;10590;48.154;11.514;2022-12-29T18:42:59;95405.84;;;8.74;54.31
20860;BME280;10590;48.154;11.514;2022-12-29T18:48:01;95401.03;;;8.93;53.58
20860;BME280;10590;48.154;11.514;2022-12-29T18:53:03;95399.50;;;9.10;52.34
20860;BME280;10590;48.154;11.514;2022-12-29T18:58:06;95403.50;;;8.81;52.15
20860;BME280;10590;48.154;11.514;2022-12-29T19:03:10;95407.50;;;8.61;52.61
20860;BME280;10590;48.154;11.514;2022-12-29T19:08:13;95409.84;;;8.63;52.91
20860;BME280;10590;48.154;11.514;2022-12-29T19:13:18;95408.06;;;8.81;52.72
20860;BME280;10590;48.154;11.514;2022-12-29T19:18:23;95417.19;;;9.06;52.84
20860;BME280;10590;48.154;11.514;2022-12-29T19:23:25;95401.84;;;9.11;53.19
20860;BME280;10590;48.154;11.514;2022-12-29T19:28:28;95415.47;;;9.10;52.79
20860;BME280;10590;48.154;11.514;2022-12-29T19:33:30;95406.84;;;8.96;50.88
20860;BME280;10590;48.154;11.514;2022-12-29T19:38:32;95406.22;;;8.59;51.55
20860;BME280;10590;48.154;11.514;2022-12-29T19:43:37;95406.16;;;8.73;51.82
20860;BME280;10590;48.154;11.514;2022-12-29T19:48:38;95406.72;;;8.61;52.44
20860;BME280;10590;48.154;11.514;2022-12-29T19:53:40;95416.16;;;8.67;52.51
20860;BME280;10590;48.154;11.514;2022-12-29T19:58:43;95428.72;;;8.53;53.61
20860;BME280;10590;48.154;11.514;2022-12-29T20:03:44;95428.25;;;8.51;55.14
20860;BME280;10590;48.154;11.514;2022-12-29T20:08:46;95426.78;;;8.14;60.54
20860;BME280;10590;48.154;11.514;2022-12-29T20:13:49;95429.44;;;8.14;63.98
20860;BME280;10590;48.154;11.514;2022-12-29T20:18:53;95402.06;;;8.13;66.09
20860;BME280;10590;48.154;11.514;2022-12-29T20:23:55;95411.38;;;8.24;67.94
20860;BME280;10590;48.154;11.514;2022-12-29T20:28:58;95417.47;;;8.25;69.37
20860;BME280;10590;48.154;11.514;2022-12-29T20:34:00;95416.94;;;8.14;70.98
20860;BME280;10590;48.154;11.514;2022-12-29T20:39:04;95417.53;;;8.11;71.83
20860;BME280;10590;48.154;11.514;2022-12-29T20:44:08;95430.03;;;8.11;71.73
20860;BME280;10590;48.154;11.514;2022-12-29T20:49:10;95414.41;;;8.09;70.85
20860;BME280;10590;48.154;11.514;2022-12-29T20:54:13;95411.97;;;8.21;70.35
20860;BME280;10590;48.154;11.514;2022-12-29T20:59:16;95395.06;;;8.17;68.96
20860;BME280;10590;48.154;11.514;2022-12-29T21:04:17;95386.47;;;8.20;68.93
20860;BME280;10590;48.154;11.514;2022-12-29T21:09:19;95390.41;;;8.23;68.03
20860;BME280;10590;48.154;11.514;2022-12-29T21:14:22;95389.25;;;8.38;67.15
20860;BME280;10590;48.154;11.514;2022-12-29T21:19:24;95389.63;;;8.22;67.49
20860;BME280;10590;48.154;11.514;2022-12-29T21:24:25;95385.03;;;8.14;67.43
20860;BME280;10590;48.154;11.514;2022-12-29T21:29:28;95394.31;;;8.25;67.10
20860;BME280;10590;48.154;11.514;2022-12-29T21:34:30;95389.50;;;8.27;66.84
20860;BME280;10590;48.154;11.514;2022-12-29T21:39:31;95402.31;;;8.25;67.17
20860;BME280;10590;48.154;11.514;2022-12-29T21:44:34;95393.88;;;8.32;67.51
20860;BME280;10590;48.154;11.514;2022-12-29T21:49:53;95391.06;;;8.28;67.60
20860;BME280;10590;48.154;11.514;2022-12-29T21:54:55;95393.84;;;8.23;67.45
20860;BME280;10590;48.154;11.514;2022-12-29T22:00:07;95404.25;;;8.11;68.70
20860;BME280;10590;48.154;11.514;2022-12-29T22:05:27;95430.72;;;7.94;68.37
20860;BME280;10590;48.154;11.514;2022-12-29T22:10:47;95429.50;;;8.22;67.46
20860;BME280;10590;48.154;11.514;2022-12-29T22:16:09;95435.00;;;8.57;65.28
20860;BME280;10590;48.154;11.514;2022-12-29T22:21:11;95421.75;;;8.66;64.50
20860;BME280;10590;48.154;11.514;2022-12-29T22:26:14;95425.63;;;8.06;67.28
20860;BME280;10590;48.154;11.514;2022-12-29T22:31:22;95436.28;;;8.06;67.38
20860;BME280;10590;48.154;11.514;2022-12-29T22:36:27;95450.22;;;7.53;68.49
20860;BME280;10590;48.154;11.514;2022-12-29T22:41:29;95454.22;;;7.64;67.09
20860;BME280;10590;48.154;11.514;2022-12-29T22:46:32;95460.03;;;7.66;66.34
20860;BME280;10590;48.154;11.514;2022-12-29T22:51:34;95466.91;;;7.67;65.79
20860;BME280;10590;48.154;11.514;2022-12-29T22:56:35;95469.56;;;7.67;66.29
20860;BME280;10590;48.154;11.514;2022-12-29T23:01:42;95470.16;;;7.64;67.25
20860;BME280;10590;48.154;11.514;2022-12-29T23:06:44;95488.94;;;7.68;67.47
20860;BME280;10590;48.154;11.514;2022-12-29T23:11:51;95491.88;;;7.66;67.77
20860;BME280;10590;48.154;11.514;2022-12-29T23:16:54;95497.75;;;7.77;68.14
20860;BME280;10590;48.154;11.514;2022-12-29T23:21:56;95484.69;;;7.81;69.02
20860;BME280;10590;48.154;11.514;2022-12-29T23:26:57;95503.06;;;7.91;69.72
20860;BME280;10590;48.154;11.514;2022-12-29T23:32:00;95512.25;;;8.07;70.07
20860;BME280;10590;48.154;11.514;2022-12-29T23:37:02;95507.28;;;8.14;70.40
20860;BME280;10590;48.154;11.514;2022-12-29T23:42:04;95500.16;;;8.01;71.47
20860;BME280;10590;48.154;11.514;2022-12-29T23:47:07;95509.69;;;8.02;72.27
20860;BME280;10590;48.154;11.514;2022-12-29T23:52:09;95520.81;;;8.04;72.20
20860;BME280;10590;48.154;11.514;2022-12-29T23:57:10;95527.09;;;8.08;72.79
